createdAt,value
2017-08-23T00:00:05.981Z,75.58
2017-08-23T00:02:38.038Z,76.13
2017-08-23T00:05:08.709Z,75.12
2017-08-23T00:07:39.283Z,77.56
2017-08-23T00:10:10.178Z,77.71
2017-08-23T00:12:39.513Z,76.33
2017-08-23T00:15:12.476Z,75.35
2017-08-23T00:17:42.783Z,74.79
2017-08-23T00:20:12.509Z,74.95
2017-08-23T00:22:43.943Z,74.94
2017-08-23T00:25:13.282Z,75.20
2017-08-23T00:27:46.587Z,74.65
2017-08-23T00:30:18.365Z,73.79
2017-08-23T00:32:50.093Z,74.28
2017-08-23T00:35:22.523Z,74.62
2017-08-23T00:37:59.617Z,74.48
2017-08-23T00:40:29.510Z,74.45
2017-08-23T00:42:59.522Z,74.50
2017-08-23T00:45:29.219Z,74.41
2017-08-23T00:47:58.739Z,74.66
2017-08-23T00:50:28.346Z,74.51
2017-08-23T00:52:57.687Z,74.78
2017-08-23T00:55:29.250Z,75.47
2017-08-23T00:57:58.900Z,74.92
2017-08-23T01:00:29.860Z,74.86
2017-08-23T01:03:00.224Z,76.05
2017-08-23T01:05:31.554Z,75.55
2017-08-23T01:08:00.924Z,75.44
2017-08-23T01:10:35.792Z,75.20
2017-08-23T01:13:05.589Z,75.45
2017-08-23T01:15:39.342Z,75.47
2017-08-23T01:18:08.892Z,75.57
2017-08-23T01:20:38.730Z,75.32
2017-08-23T01:23:08.073Z,78.98
2017-08-23T01:25:38.283Z,76.37
2017-08-23T01:28:07.893Z,76.57
2017-08-23T01:30:37.331Z,75.98
2017-08-23T01:33:07.378Z,76.67
2017-08-23T01:35:37.135Z,76.71
2017-08-23T01:38:06.297Z,76.54
2017-08-23T01:40:36.102Z,76.66
2017-08-23T01:43:05.311Z,76.85
2017-08-23T01:45:34.562Z,78.15
2017-08-23T01:48:04.211Z,77.37
2017-08-23T01:50:33.630Z,77.42
2017-08-23T01:53:02.981Z,77.59
2017-08-23T01:55:32.983Z,77.06
2017-08-23T01:58:02.505Z,77.12
2017-08-23T02:00:32.143Z,77.07
2017-08-23T02:03:02.696Z,77.04
2017-08-23T02:05:32.439Z,76.70
2017-08-23T02:08:02.438Z,76.68
2017-08-23T02:10:32.330Z,76.91
2017-08-23T02:13:01.608Z,77.17
2017-08-23T02:15:30.955Z,77.49
2017-08-23T02:18:01.382Z,77.63
2017-08-23T02:20:30.752Z,77.63
2017-08-23T02:23:01.036Z,77.52
2017-08-23T02:25:30.596Z,77.74
2017-08-23T02:28:00.395Z,78.06
2017-08-23T02:30:29.824Z,77.82
2017-08-23T02:32:59.163Z,77.78
2017-08-23T02:35:28.444Z,77.66
2017-08-23T02:37:58.070Z,77.50
2017-08-23T02:40:27.547Z,77.41
2017-08-23T02:42:56.807Z,77.26
2017-08-23T02:45:26.346Z,77.35
2017-08-23T02:47:55.815Z,78.45
2017-08-23T02:50:25.387Z,78.07
2017-08-23T02:52:55.227Z,77.23
2017-08-23T02:55:24.608Z,77.40
2017-08-23T02:57:54.124Z,78.32
2017-08-23T03:00:24.046Z,78.64
2017-08-23T03:02:53.329Z,79.10
2017-08-23T03:05:22.999Z,79.67
2017-08-23T03:07:53.983Z,79.74
2017-08-23T03:10:23.548Z,79.62
2017-08-23T03:12:52.749Z,79.19
2017-08-23T03:15:23.938Z,79.20
2017-08-23T03:17:53.304Z,78.93
2017-08-23T03:20:22.896Z,78.57
2017-08-23T03:22:52.713Z,77.97
2017-08-23T03:25:23.584Z,78.46
2017-08-23T03:27:52.915Z,78.51
2017-08-23T03:30:22.597Z,78.13
2017-08-23T03:32:51.947Z,78.10
2017-08-23T03:35:21.653Z,78.90
2017-08-23T03:37:51.522Z,79.94
2017-08-23T03:40:20.950Z,80.67
2017-08-23T03:42:51.975Z,78.56
2017-08-23T03:45:23.332Z,78.71
2017-08-23T03:47:52.627Z,78.44
2017-08-23T03:50:22.139Z,81.59
2017-08-23T03:52:53.640Z,84.35
2017-08-23T03:55:23.091Z,81.68
2017-08-23T03:57:52.341Z,80.27
2017-08-23T04:00:21.680Z,79.33
2017-08-23T04:02:51.598Z,79.02
2017-08-23T04:05:20.836Z,80.09
2017-08-23T04:07:53.619Z,82.22
2017-08-23T04:10:23.925Z,80.37
2017-08-23T04:12:53.419Z,79.81
2017-08-23T04:15:23.243Z,79.57
2017-08-23T04:17:53.006Z,79.14
2017-08-23T04:20:22.866Z,79.15
2017-08-23T04:22:52.179Z,78.61
2017-08-23T04:25:21.727Z,79.23
2017-08-23T04:27:51.170Z,79.29
2017-08-23T04:30:20.413Z,79.84
2017-08-23T04:32:53.466Z,79.68
2017-08-23T04:35:23.207Z,79.37
2017-08-23T04:37:53.299Z,79.69
2017-08-23T04:40:22.883Z,79.51
2017-08-23T04:42:52.189Z,79.54
2017-08-23T04:45:21.647Z,79.56
2017-08-23T04:47:52.273Z,80.39
2017-08-23T04:50:21.872Z,80.17
2017-08-23T04:52:51.883Z,79.66
2017-08-23T04:55:21.540Z,79.71
2017-08-23T04:57:51.640Z,79.93
2017-08-23T05:00:22.184Z,79.54
2017-08-23T05:02:52.606Z,79.94
2017-08-23T05:05:22.314Z,79.85
2017-08-23T05:07:51.568Z,79.85
2017-08-23T05:10:21.606Z,79.89
2017-08-23T05:12:51.182Z,80.07
2017-08-23T05:15:21.126Z,80.02
2017-08-23T05:17:51.995Z,80.37
2017-08-23T05:20:22.448Z,80.60
2017-08-23T05:22:51.695Z,80.41
2017-08-23T05:25:21.284Z,80.65
2017-08-23T05:27:51.978Z,80.81
2017-08-23T05:30:21.314Z,80.76
2017-08-23T05:32:52.407Z,80.43
2017-08-23T05:35:21.915Z,80.09
2017-08-23T05:37:51.715Z,80.36
2017-08-23T05:40:21.385Z,80.27
2017-08-23T05:42:51.854Z,80.90
2017-08-23T05:45:21.305Z,81.44
2017-08-23T05:47:51.990Z,81.31
2017-08-23T05:50:21.393Z,80.71
2017-08-23T05:52:57.956Z,80.65
2017-08-23T05:55:27.754Z,80.91
2017-08-23T05:57:57.171Z,79.96
2017-08-23T06:00:26.827Z,81.70
2017-08-23T06:02:56.515Z,83.19
2017-08-23T06:05:25.816Z,84.57
2017-08-23T06:07:55.063Z,84.83
2017-08-23T06:10:24.691Z,84.60
2017-08-23T06:12:54.058Z,84.92
2017-08-23T06:15:23.398Z,84.36
2017-08-23T06:17:53.176Z,84.78
2017-08-23T06:20:22.489Z,85.79
2017-08-23T06:22:51.784Z,85.54
2017-08-23T06:25:21.809Z,85.67
2017-08-23T06:27:52.462Z,86.17
2017-08-23T06:30:21.940Z,85.89
2017-08-23T06:32:52.766Z,84.77
2017-08-23T06:35:22.416Z,85.65
2017-08-23T06:37:51.611Z,85.18
2017-08-23T06:40:21.327Z,83.75
2017-08-23T06:42:51.317Z,85.48
2017-08-23T06:45:20.611Z,84.58
2017-08-23T06:47:52.046Z,85.65
2017-08-23T06:50:21.438Z,85.19
2017-08-23T06:52:51.370Z,83.58
2017-08-23T06:55:21.033Z,82.18
2017-08-23T06:57:51.587Z,83.27
2017-08-23T07:02:55.418Z,85.20
2017-08-23T07:05:25.021Z,80.38
2017-08-23T07:07:54.351Z,78.01
2017-08-23T07:10:24.160Z,77.25
2017-08-23T07:12:53.641Z,76.31
2017-08-23T07:15:22.984Z,77.99
2017-08-23T07:17:53.246Z,72.67
2017-08-23T07:20:27.720Z,75.54
2017-08-23T07:22:57.433Z,73.47
2017-08-23T07:25:26.975Z,74.14
2017-08-23T07:27:56.319Z,74.40
2017-08-23T07:30:26.015Z,69.72
2017-08-23T07:32:55.207Z,73.97
2017-08-23T07:35:25.242Z,71.02
2017-08-23T07:37:54.747Z,67.92
2017-08-23T07:40:25.661Z,66.92
2017-08-23T07:42:55.434Z,66.69
2017-08-23T07:45:26.688Z,64.41
2017-08-23T07:47:56.170Z,68.35
2017-08-23T07:50:27.251Z,66.78
2017-08-23T07:52:56.662Z,68.54
2017-08-23T07:55:27.621Z,66.99
2017-08-23T07:57:57.331Z,63.75
2017-08-23T08:00:26.960Z,63.75
2017-08-23T08:02:56.263Z,63.04
2017-08-23T08:05:26.844Z,61.96
2017-08-23T08:07:56.357Z,63.03
2017-08-23T08:10:26.154Z,61.54
2017-08-23T08:12:55.678Z,62.31
2017-08-23T08:15:25.126Z,63.56
2017-08-23T08:17:54.304Z,60.89
2017-08-23T08:20:24.442Z,61.40
2017-08-23T08:22:53.958Z,65.33
2017-08-23T08:25:23.217Z,61.86
2017-08-23T08:27:52.835Z,63.55
2017-08-23T08:30:22.277Z,60.43
2017-08-23T08:32:51.992Z,57.81
2017-08-23T08:35:21.666Z,57.46
2017-08-23T08:37:52.060Z,57.26
2017-08-23T08:40:22.097Z,56.66
2017-08-23T08:42:53.122Z,57.46
2017-08-23T08:45:22.332Z,60.31
2017-08-23T08:47:51.604Z,59.85
2017-08-23T08:50:21.103Z,61.27
2017-08-23T08:52:53.974Z,60.04
2017-08-23T08:55:24.693Z,56.58
2017-08-23T08:57:54.716Z,55.45
2017-08-23T09:00:24.231Z,58.07
2017-08-23T09:02:55.199Z,56.17
2017-08-23T09:05:24.606Z,57.17
2017-08-23T09:07:54.148Z,55.52
2017-08-23T09:10:23.752Z,53.29
2017-08-23T09:12:53.225Z,54.89
2017-08-23T09:15:22.744Z,54.35
2017-08-23T09:17:52.475Z,53.44
2017-08-23T09:20:21.658Z,54.61
2017-08-23T09:22:51.111Z,53.52
2017-08-23T09:25:20.990Z,53.28
2017-08-23T09:27:50.770Z,52.22
2017-08-23T09:30:19.962Z,53.86
2017-08-23T09:32:51.251Z,50.66
2017-08-23T09:35:20.748Z,49.79
2017-08-23T09:37:50.910Z,50.68
2017-08-23T09:40:21.770Z,53.09
2017-08-23T09:42:53.519Z,49.21
2017-08-23T09:45:22.922Z,51.16
2017-08-23T09:47:52.558Z,51.49
2017-08-23T09:50:21.937Z,50.27
2017-08-23T09:52:53.028Z,52.70
2017-08-23T09:55:24.019Z,52.68
2017-08-23T09:57:53.211Z,53.52
2017-08-23T10:00:23.383Z,49.35
2017-08-23T10:02:52.974Z,50.63
2017-08-23T10:05:22.326Z,45.95
2017-08-23T10:07:52.939Z,46.77
2017-08-23T10:10:22.704Z,49.05
2017-08-23T10:12:51.904Z,49.81
2017-08-23T10:15:21.124Z,46.17
2017-08-23T10:17:50.738Z,47.92
2017-08-23T10:20:21.298Z,44.63
2017-08-23T10:22:50.865Z,43.48
2017-08-23T10:25:20.389Z,42.72
2017-08-23T10:30:29.214Z,44.36
2017-08-23T10:32:59.006Z,48.48
2017-08-23T10:35:28.248Z,48.02
2017-08-23T10:37:59.141Z,49.88
2017-08-23T10:40:28.457Z,52.72
2017-08-23T10:42:58.179Z,48.41
2017-08-23T10:45:27.787Z,44.48
2017-08-23T10:47:57.026Z,47.36
2017-08-23T10:50:26.602Z,43.68
2017-08-23T10:52:56.542Z,47.01
2017-08-23T10:55:26.026Z,45.78
2017-08-23T10:57:55.185Z,42.59
2017-08-23T11:00:26.747Z,42.39
2017-08-23T11:02:55.919Z,46.58
2017-08-23T11:05:25.587Z,47.91
2017-08-23T11:07:55.070Z,47.18
2017-08-23T11:10:24.685Z,43.67
2017-08-23T11:12:53.900Z,42.99
2017-08-23T11:15:25.475Z,44.64
2017-08-23T11:17:55.971Z,42.65
2017-08-23T11:20:25.693Z,43.29
2017-08-23T11:22:55.799Z,45.50
2017-08-23T11:25:25.031Z,45.74
2017-08-23T11:27:55.578Z,45.20
2017-08-23T11:30:25.121Z,49.58
2017-08-23T11:32:54.541Z,48.67
2017-08-23T11:35:23.716Z,46.19
2017-08-23T11:37:53.309Z,45.99
2017-08-23T11:40:22.558Z,48.89
2017-08-23T11:42:51.758Z,46.63
2017-08-23T11:45:21.342Z,46.69
2017-08-23T11:47:50.759Z,42.16
2017-08-23T11:50:20.084Z,43.19
2017-08-23T11:52:51.434Z,43.24
2017-08-23T11:55:21.304Z,43.77
2017-08-23T11:57:51.984Z,44.09
2017-08-23T12:00:21.979Z,46.09
2017-08-23T12:02:51.842Z,45.15
2017-08-23T12:05:21.498Z,44.18
2017-08-23T12:07:51.367Z,42.92
2017-08-23T12:10:21.218Z,46.15
2017-08-23T12:12:51.107Z,39.72
2017-08-23T12:15:21.990Z,40.09
2017-08-23T12:17:51.647Z,40.15
2017-08-23T12:20:21.120Z,39.41
2017-08-23T12:22:51.266Z,38.28
2017-08-23T12:25:20.934Z,43.12
2017-08-23T12:27:50.815Z,41.81
2017-08-23T12:30:20.467Z,40.64
2017-08-23T12:32:52.706Z,38.31
2017-08-23T12:35:22.056Z,40.07
2017-08-23T12:37:51.971Z,37.01
2017-08-23T12:40:21.343Z,37.10
2017-08-23T12:42:50.902Z,42.66
2017-08-23T12:45:20.499Z,40.45
2017-08-23T12:47:51.401Z,43.26
2017-08-23T12:50:21.123Z,40.68
2017-08-23T12:52:51.713Z,43.81
2017-08-23T12:55:24.254Z,41.77
2017-08-23T12:57:53.451Z,42.57
2017-08-23T13:00:23.021Z,42.35
2017-08-23T13:02:52.228Z,40.40
2017-08-23T13:05:21.486Z,41.78
2017-08-23T13:07:51.128Z,41.61
2017-08-23T13:10:20.798Z,39.67
2017-08-23T13:12:51.377Z,41.61
2017-08-23T13:15:20.870Z,40.55
2017-08-23T13:17:50.101Z,37.22
2017-08-23T13:20:19.560Z,41.08
2017-08-23T13:22:51.276Z,40.35
2017-08-23T13:25:20.738Z,39.66
2017-08-23T13:27:52.781Z,41.10
2017-08-23T13:30:28.039Z,40.16
2017-08-23T13:32:57.267Z,40.72
2017-08-23T13:35:26.682Z,39.00
2017-08-23T13:37:56.231Z,39.71
2017-08-23T13:40:25.684Z,39.42
2017-08-23T13:42:54.883Z,39.38
2017-08-23T13:45:25.121Z,41.04
2017-08-23T13:47:55.330Z,38.95
2017-08-23T13:50:24.715Z,38.63
2017-08-23T13:52:54.410Z,39.20
2017-08-23T13:55:27.506Z,39.59
2017-08-23T13:57:57.026Z,38.44
2017-08-23T14:00:26.914Z,40.45
2017-08-23T14:02:56.138Z,38.41
2017-08-23T14:05:25.525Z,37.77
2017-08-23T14:07:55.196Z,35.89
2017-08-23T14:10:24.628Z,35.52
2017-08-23T14:12:53.973Z,37.13
2017-08-23T14:15:23.746Z,38.46
2017-08-23T14:17:53.198Z,35.84
2017-08-23T14:20:22.531Z,38.98
2017-08-23T14:22:52.146Z,40.49
2017-08-23T14:25:21.503Z,42.64
2017-08-23T14:27:50.672Z,39.20
2017-08-23T14:30:20.209Z,38.64
2017-08-23T14:32:50.950Z,38.58
2017-08-23T14:35:20.485Z,38.16
2017-08-23T14:37:51.232Z,39.29
2017-08-23T14:40:20.773Z,39.54
2017-08-23T14:42:51.679Z,38.49
2017-08-23T14:45:21.201Z,39.58
2017-08-23T14:47:51.591Z,40.44
2017-08-23T14:50:20.882Z,36.90
2017-08-23T14:52:51.426Z,35.45
2017-08-23T14:55:20.818Z,35.87
2017-08-23T14:57:51.026Z,36.58
2017-08-23T15:00:21.030Z,38.70
2017-08-23T15:02:51.674Z,39.38
2017-08-23T15:05:21.112Z,38.97
2017-08-23T15:07:51.398Z,38.25
2017-08-23T15:10:20.783Z,37.24
2017-08-23T15:12:52.025Z,38.16
2017-08-23T15:15:21.854Z,38.13
2017-08-23T15:17:51.604Z,37.98
2017-08-23T15:20:21.273Z,38.13
2017-08-23T15:22:51.739Z,40.77
2017-08-23T15:25:21.718Z,39.83
2017-08-23T15:27:51.004Z,36.92
2017-08-23T15:30:20.723Z,40.34
2017-08-23T15:32:50.410Z,40.06
2017-08-23T15:35:19.577Z,37.08
2017-08-23T15:37:52.491Z,39.47
2017-08-23T15:40:21.753Z,39.26
2017-08-23T15:42:52.581Z,37.51
2017-08-23T15:45:22.084Z,39.45
2017-08-23T15:47:51.366Z,39.17
2017-08-23T15:50:20.842Z,39.53
2017-08-23T15:52:51.619Z,39.24
2017-08-23T15:55:21.281Z,38.02
2017-08-23T15:57:51.306Z,39.06
2017-08-23T16:00:20.794Z,37.88
2017-08-23T16:02:51.064Z,37.07
2017-08-23T16:05:20.482Z,39.07
2017-08-23T16:07:52.146Z,36.70
2017-08-23T16:10:23.639Z,36.12
2017-08-23T16:12:53.703Z,37.89
2017-08-23T16:15:26.548Z,37.39
2017-08-23T16:17:56.291Z,40.42
2017-08-23T16:20:25.475Z,40.20
2017-08-23T16:22:55.038Z,40.45
2017-08-23T16:25:24.584Z,38.36
2017-08-23T16:27:54.095Z,39.55
2017-08-23T16:30:23.772Z,39.09
2017-08-23T16:32:53.099Z,40.40
2017-08-23T16:35:23.928Z,39.92
2017-08-23T16:37:53.727Z,39.76
2017-08-23T16:40:23.166Z,37.37
2017-08-23T16:42:53.253Z,38.52
2017-08-23T16:45:22.851Z,38.98
2017-08-23T16:47:52.187Z,39.94
2017-08-23T16:50:21.639Z,40.21
2017-08-23T16:52:51.483Z,42.36
2017-08-23T16:55:21.026Z,40.44
2017-08-23T16:57:51.167Z,41.52
2017-08-23T17:00:22.307Z,41.48
2017-08-23T17:02:52.025Z,41.71
2017-08-23T17:05:21.548Z,41.46
2017-08-23T17:07:51.287Z,41.98
2017-08-23T17:10:20.597Z,40.83
2017-08-23T17:12:51.660Z,41.69
2017-08-23T17:15:21.404Z,41.43
2017-08-23T17:17:51.514Z,42.35
2017-08-23T17:20:20.881Z,41.34
2017-08-23T17:22:51.482Z,43.12
2017-08-23T17:25:21.063Z,43.65
2017-08-23T17:27:50.910Z,45.05
2017-08-23T17:30:20.733Z,45.52
2017-08-23T17:32:51.018Z,46.48
2017-08-23T17:35:20.503Z,46.15
2017-08-23T17:37:51.779Z,45.99
2017-08-23T17:40:21.168Z,46.97
2017-08-23T17:42:50.881Z,47.50
2017-08-23T17:45:20.630Z,48.02
2017-08-23T17:47:51.155Z,49.63
2017-08-23T17:50:20.676Z,47.30
2017-08-23T17:52:53.725Z,48.39
2017-08-23T17:55:23.115Z,49.34
2017-08-23T17:57:52.318Z,49.13
2017-08-23T18:00:22.100Z,49.75
2017-08-23T18:02:51.983Z,50.30
2017-08-23T18:05:24.633Z,51.17
2017-08-23T18:07:54.419Z,49.51
2017-08-23T18:10:24.764Z,50.64
2017-08-23T18:12:54.171Z,50.05
2017-08-23T18:15:24.691Z,50.69
2017-08-23T18:17:54.843Z,50.52
2017-08-23T18:20:24.630Z,51.37
2017-08-23T18:22:54.098Z,50.89
2017-08-23T18:25:25.007Z,51.47
2017-08-23T18:27:54.627Z,50.86
2017-08-23T18:30:27.277Z,51.58
2017-08-23T18:32:56.865Z,52.66
2017-08-23T18:35:26.271Z,51.08
2017-08-23T18:37:57.079Z,50.74
2017-08-23T18:40:26.327Z,50.88
2017-08-23T18:42:55.627Z,51.53
2017-08-23T18:45:25.087Z,53.33
2017-08-23T18:47:54.443Z,53.59
2017-08-23T18:50:23.712Z,53.75
2017-08-23T18:52:53.397Z,54.30
2017-08-23T18:55:22.752Z,55.53
2017-08-23T18:57:52.122Z,55.51
2017-08-23T19:00:21.911Z,56.39
2017-08-23T19:02:51.437Z,56.11
2017-08-23T19:05:20.878Z,57.29
2017-08-23T19:07:52.259Z,55.60
2017-08-23T19:10:23.439Z,55.56
2017-08-23T19:12:52.941Z,55.51
2017-08-23T19:15:22.391Z,55.65
2017-08-23T19:17:51.935Z,55.71
2017-08-23T19:20:22.052Z,55.84
2017-08-23T19:22:52.036Z,56.04
2017-08-23T19:25:22.222Z,56.75
2017-08-23T19:27:51.835Z,57.19
2017-08-23T19:30:21.340Z,56.94
2017-08-23T19:32:50.787Z,56.59
2017-08-23T19:35:21.807Z,57.33
2017-08-23T19:37:51.382Z,56.67
2017-08-23T19:40:20.788Z,57.61
2017-08-23T19:42:51.116Z,56.73
2017-08-23T19:45:20.406Z,56.07
2017-08-23T19:47:49.661Z,56.09
2017-08-23T19:50:19.202Z,56.01
2017-08-23T19:52:52.219Z,55.77
2017-08-23T19:55:21.594Z,55.66
2017-08-23T19:57:52.052Z,55.99
2017-08-23T20:00:21.397Z,55.73
2017-08-23T20:02:50.752Z,56.01
2017-08-23T20:05:20.271Z,56.30
2017-08-23T20:07:49.731Z,56.20
2017-08-23T20:10:18.940Z,56.46
2017-08-23T20:12:52.492Z,56.70
2017-08-23T20:15:21.771Z,56.67
2017-08-23T20:17:51.339Z,57.05
2017-08-23T20:20:20.813Z,56.82
2017-08-23T20:22:49.995Z,56.47
2017-08-23T20:25:19.847Z,56.48
2017-08-23T20:27:49.051Z,56.14
2017-08-23T20:30:18.399Z,56.46
2017-08-23T20:32:51.117Z,56.20
2017-08-23T20:35:20.383Z,55.93
2017-08-23T20:37:51.093Z,56.95
2017-08-23T20:40:20.651Z,58.38
2017-08-23T20:42:51.571Z,57.49
2017-08-23T20:45:21.479Z,59.47
2017-08-23T20:47:51.577Z,59.75
2017-08-23T20:50:20.930Z,59.80
2017-08-23T20:52:50.149Z,60.37
2017-08-23T20:55:21.007Z,61.77
2017-08-23T20:57:50.592Z,61.88
2017-08-23T21:00:20.422Z,60.37
2017-08-23T21:02:53.358Z,59.46
2017-08-23T21:05:22.670Z,58.59
2017-08-23T21:07:53.162Z,58.71
2017-08-23T21:10:22.787Z,58.67
2017-08-23T21:12:52.210Z,58.79
2017-08-23T21:15:21.575Z,59.43
2017-08-23T21:17:51.257Z,59.41
2017-08-23T21:20:20.637Z,58.80
2017-08-23T21:22:51.138Z,59.99
2017-08-23T21:25:20.873Z,59.93
2017-08-23T21:27:51.583Z,60.06
2017-08-23T21:30:21.083Z,60.20
2017-08-23T21:32:50.881Z,59.57
2017-08-23T21:35:20.074Z,60.49
2017-08-23T21:37:51.247Z,61.12
2017-08-23T21:40:20.818Z,62.49
2017-08-23T21:42:50.967Z,64.73
2017-08-23T21:45:20.414Z,64.31
2017-08-23T21:47:55.473Z,65.73
2017-08-23T21:50:24.975Z,64.63
2017-08-23T21:52:54.518Z,64.40
2017-08-23T21:55:24.172Z,65.42
2017-08-23T21:57:53.922Z,64.34
2017-08-23T22:00:25.490Z,64.32
2017-08-23T22:02:55.447Z,64.56
2017-08-23T22:05:32.911Z,65.30
2017-08-23T22:08:02.478Z,64.61
2017-08-23T22:10:31.639Z,68.73
2017-08-23T22:13:01.331Z,67.17
2017-08-23T22:15:31.031Z,67.87
2017-08-23T22:18:00.572Z,67.27
2017-08-23T22:20:29.823Z,66.47
2017-08-23T22:22:59.945Z,69.98
2017-08-23T22:25:29.502Z,68.87
2017-08-23T22:27:58.802Z,66.90
2017-08-23T22:30:28.489Z,67.04
2017-08-23T22:32:59.669Z,66.35
2017-08-23T22:35:29.031Z,66.49
2017-08-23T22:37:59.193Z,65.69
2017-08-23T22:40:28.627Z,65.73
2017-08-23T22:42:58.512Z,65.32
2017-08-23T22:45:28.456Z,67.66
2017-08-23T22:47:57.813Z,67.67
2017-08-23T22:50:28.554Z,68.20
2017-08-23T22:52:58.026Z,66.78
2017-08-23T22:55:27.535Z,66.85
2017-08-23T22:57:57.077Z,67.97
2017-08-23T23:00:27.173Z,68.47
2017-08-23T23:02:56.384Z,69.96
2017-08-23T23:05:25.655Z,69.58
2017-08-23T23:07:55.128Z,68.53
2017-08-23T23:10:24.374Z,67.91
2017-08-23T23:12:53.538Z,71.87
2017-08-23T23:15:23.042Z,70.89
2017-08-23T23:17:53.520Z,71.49
2017-08-23T23:20:22.723Z,69.25
2017-08-23T23:22:52.784Z,74.68
2017-08-23T23:25:22.010Z,70.35
2017-08-23T23:27:51.321Z,72.31
2017-08-23T23:30:20.802Z,70.20
2017-08-23T23:32:51.208Z,71.36
2017-08-23T23:35:20.403Z,74.47
2017-08-23T23:37:51.799Z,71.18
2017-08-23T23:40:21.466Z,72.72
2017-08-23T23:42:51.353Z,70.58
2017-08-23T23:45:21.395Z,74.59
2017-08-23T23:47:51.514Z,71.69
2017-08-23T23:50:21.279Z,70.93
2017-08-23T23:52:51.395Z,75.70
2017-08-23T23:55:22.283Z,74.94
2017-08-23T23:57:51.623Z,75.13
